Main page
METAR-TAF:

METAR-TAF

Airports :

Bahrain International Airport

Bahrain, Bahrain

latitude: 26-16N, longitude: 050-39E, elevation: 2 m

Current weather observation

The report was made 8 minutes ago, at 21:30 UTC
Wind 7 kt from the East
Temperature 30°C
Humidity 59%
Pressure 1012 hPa
Visibility 10 km or more
Few clouds at a height of 4000 ft

METAR: OBBI 172130Z 08007KT 9999 FEW040 30/21 Q1012 NOSIG

Time: 00:38 (21:38 UTC)

Forecast

The report was made 4 hours and 38 minutes ago, at 17:00 UTC
Forecast valid from 17 at 18 UTC to 19 at 00 UTC
Wind 8 kt from the East
Visibility: 8000 m
Scattered clouds at a height of 2500 ft
Probability 30% :
Temporary
from 18 at 06 UTC to 18 at 14 UTC
Wind 8 kt from the North/Northwest with gusts up to 30 kt
Visibility: 5000 m
Scattered clouds at a height of 2000 ft
Few clouds at a height of 3000 ft, Cumulonimbus.
thunderstorm, light rain

TAF: OBBI 171700Z 1718/1900 09008KT 8000 SCT025 PROB30 TEMPO 1806/1814 34008G30KT 5000 -TSRA SCT020 FEW030CB

Weather observations and forecasts of more than 4000 airports (METAR and TAF reports).

The available stations are represented by yellow and red dots on the map.

Hover mouse over dot to see the name of the station.

Then click to see weather observations and forecasts.

To change the map : click on the green buttons with a black cross to zoom in, on the green button with a dash to zoom out, or on the green arrows for adjacent maps.


METAR-TAF: